Darstellungsparameter: Aktuell verwendete Einstellungen:
Skalierung der Graphiken ... ?
xyx+y,   Skalierungsfaktor:      Skalierung: Modus: x, Faktor: 1
Darstellungszeitraum ... ?
Vom - - bis: - -   Zeitraum: 29.05.2009 - 04.06.2009
Min/Max/Avg-Anzeige ... ?
Zeige MMA aktuell
Zeige MMA Monat
Zeige MMA alles
Zeige --A aktuell
Zeige --A Monat
Zeige --A alles
Keine MMA-Anzeige
MMA:
Keine MMA-Graphiken
MMA-Basis: 29.05.2009 - 04.06.2009
Quicknavigation für Darstellung... ?
Tage:      1T, 2T, 3T, 5T -1T -2T -3T -5T +1T +2T +3T +5T
Wochen: 1W, 2W, 3W -1W -2W -3W +1W +2W +3W
Monate: 1M, 3M, 6M -1M -3M -6M +1M +3M +6M
Jahre:    1J, 3J, 5J, 10J -1J -3J -5J -10J +1J +3J +5J +10J
Nutze für die Darstellung ... ?
Originaldaten oder Mittelwerte auf ...
Stundenbasis Tagesbasis Wochenbasis
Monatsbasis Jahresbasis      Datenbasis: Original-Daten
Darstellen als:
Statistik (Auto) Statistik J:M      Darstellung:
Zur Graphik,    zurück zur Übersicht aller Sensoren.
 
Tabellarische Datenbersicht: ?
 
Sensor: Nr:Datum:Temp:Feuchte:Taupunkt:
Aussen-T/F 1 29-05-2009 00:11:31 15.6 C 58 % 7.37 C
2 29-05-2009 00:23:31 15.4 C 58 % 7.19 C
3 29-05-2009 00:35:31 15.1 C 59 % 7.16 C
4 29-05-2009 00:47:31 14.6 C 62 % 7.41 C
5 29-05-2009 00:59:31 14.2 C 63 % 7.27 C
6 29-05-2009 01:11:32 13.9 C 66 % 7.66 C
7 29-05-2009 01:23:32 13.5 C 67 % 7.5 C
8 29-05-2009 01:35:32 13.2 C 69 % 7.64 C
9 29-05-2009 01:47:32 13 C 70 % 7.66 C
10 29-05-2009 01:59:32 12.8 C 72 % 7.88 C
11 29-05-2009 02:11:32 12.5 C 73 % 7.8 C
12 29-05-2009 02:23:32 12.2 C 73 % 7.51 C
13 29-05-2009 02:35:32 12.1 C 74 % 7.61 C
14 29-05-2009 02:47:32 11.8 C 76 % 7.71 C
15 29-05-2009 02:59:32 11.6 C 77 % 7.71 C
16 29-05-2009 03:11:32 11.4 C 78 % 7.71 C
17 29-05-2009 03:23:32 11.1 C 78 % 7.41 C
18 29-05-2009 03:35:32 10.8 C 79 % 7.31 C
19 29-05-2009 03:47:32 10.6 C 79 % 7.11 C
20 29-05-2009 03:59:32 10.5 C 80 % 7.2 C
21 29-05-2009 04:11:32 10.2 C 80 % 6.91 C
22 29-05-2009 04:23:32 10.1 C 80 % 6.81 C
23 29-05-2009 04:35:32 9.9 C 81 % 6.8 C
24 29-05-2009 04:47:32 9.7 C 82 % 6.78 C
25 29-05-2009 04:59:32 9.6 C 82 % 6.68 C
Sensor: Nr:Datum:Temp:Feuchte:Taupunkt:
Aussen-T/F 26 29-05-2009 05:11:33 9.4 C 82 % 6.49 C
27 29-05-2009 05:23:33 9.4 C 83 % 6.66 C
28 29-05-2009 05:35:33 9.4 C 84 % 6.84 C
29 29-05-2009 05:47:33 9.3 C 84 % 6.74 C
30 29-05-2009 05:59:33 9.2 C 85 % 6.81 C
31 29-05-2009 06:11:33 9.1 C 85 % 6.72 C
32 29-05-2009 06:23:33 9.1 C 86 % 6.89 C
33 29-05-2009 06:35:33 9.2 C 86 % 6.98 C
34 29-05-2009 06:47:33 9.2 C 86 % 6.98 C
35 29-05-2009 06:59:33 9.3 C 86 % 7.08 C
36 29-05-2009 07:11:31 9.5 C 86 % 7.28 C
37 29-05-2009 07:23:30 9.5 C 85 % 7.11 C
38 29-05-2009 07:35:31 9.7 C 85 % 7.3 C
39 29-05-2009 07:47:30 9.8 C 84 % 7.23 C
40 29-05-2009 07:59:30 10.2 C 83 % 7.45 C
41 29-05-2009 08:11:30 10.5 C 80 % 7.2 C
42 29-05-2009 08:23:30 11.1 C 70 % 5.84 C
43 29-05-2009 08:35:30 11.4 C 63 % 4.62 C
44 29-05-2009 08:47:29 11.8 C 60 % 4.3 C
45 29-05-2009 08:59:29 12.2 C 57 % 3.94 C
46 29-05-2009 09:11:29 12.7 C 50 % 2.56 C
47 29-05-2009 09:23:30 13.2 C 45 % 1.54 C
48 29-05-2009 09:35:29 13.6 C 40 % 0.27 C
49 29-05-2009 09:47:29 13.9 C 39 % 0.19 C
50 29-05-2009 09:59:29 14.1 C 31 % -2.75 C
Sensor: Nr:Datum:Temp:Feuchte:Taupunkt:
Aussen-T/F 51 29-05-2009 10:11:29 14.7 C 31 % -2.23 C
52 29-05-2009 10:23:29 15 C 32 % -1.54 C
53 29-05-2009 10:35:28 15.9 C 32 % -0.75 C
54 29-05-2009 10:47:29 15.7 C 30 % -1.8 C
55 29-05-2009 10:59:29 16.6 C 30 % -1.02 C
56 29-05-2009 11:11:28 17.5 C 25 % -2.72 C
57 29-05-2009 11:23:28 17 C 21 % -5.45 C
58 29-05-2009 11:35:28 17.6 C 25 % -2.63 C
59 29-05-2009 11:47:28 18.8 C 23 % -2.74 C
60 29-05-2009 11:59:28 19.6 C 21 % -3.29 C
61 29-05-2009 12:11:28 20.3 C 20 % -3.37 C
62 29-05-2009 12:23:27 20.4 C 20 % -3.28 C
63 29-05-2009 12:35:28 21.7 C 20 % -2.21 C
64 29-05-2009 12:47:27 22.6 C 20 % -1.47 C
65 29-05-2009 12:59:27 23.2 C 20 % -0.98 C
66 29-05-2009 13:11:27 23.4 C 20 % -0.81 C
67 29-05-2009 13:23:27 23.7 C 20 % -0.57 C
68 29-05-2009 13:35:27 24.7 C 20 % 0.26 C
69 29-05-2009 13:47:27 24.8 C 20 % 0.34 C
70 29-05-2009 13:59:27 24 C 20 % -0.32 C
71 29-05-2009 14:11:26 23 C 20 % -1.14 C
72 29-05-2009 14:23:26 23.1 C 20 % -1.06 C
73 29-05-2009 14:35:26 22.6 C 20 % -1.47 C
74 29-05-2009 14:47:26 23.3 C 20 % -0.9 C
75 29-05-2009 14:59:26 24.6 C 20 % 0.17 C
Sensor: Nr:Datum:Temp:Feuchte:Taupunkt:
Aussen-T/F 76 29-05-2009 15:11:26 25 C 20 % 0.5 C
77 29-05-2009 15:23:26 25.6 C 20 % 1 C
78 29-05-2009 15:35:26 26.6 C 20 % 1.82 C
79 29-05-2009 15:47:26 26.2 C 20 % 1.49 C
80 29-05-2009 15:59:26 26.1 C 20 % 1.41 C
81 29-05-2009 16:11:25 27.3 C 20 % 2.39 C
82 29-05-2009 16:23:25 27.4 C 20 % 2.47 C
83 29-05-2009 16:35:25 28.4 C 20 % 3.29 C
84 29-05-2009 16:47:25 27.8 C 20 % 2.8 C
85 29-05-2009 16:59:25 26.4 C 20 % 1.65 C
86 29-05-2009 17:11:24 28 C 20 % 2.97 C
87 29-05-2009 17:23:25 28 C 20 % 2.97 C
88 29-05-2009 17:35:25 29 C 20 % 3.79 C
89 29-05-2009 17:47:24 28.8 C 20 % 3.62 C
90 29-05-2009 17:59:24 28.3 C 20 % 3.21 C
91 29-05-2009 18:11:25 27.9 C 20 % 2.88 C
92 29-05-2009 18:23:24 28.6 C 20 % 3.46 C
93 29-05-2009 18:35:24 28.7 C 20 % 3.54 C
94 29-05-2009 18:47:24 27.6 C 20 % 2.64 C
95 29-05-2009 18:59:24 27.1 C 20 % 2.23 C
96 29-05-2009 19:11:24 26.9 C 20 % 2.06 C
97 29-05-2009 19:23:24 26.8 C 20 % 1.98 C
98 29-05-2009 19:35:23 26.6 C 20 % 1.82 C
99 29-05-2009 19:47:24 26.2 C 20 % 1.49 C
100 29-05-2009 19:59:24 25.5 C 20 % 0.91 C
Sensor: Nr:Datum:Temp:Feuchte:Taupunkt:
Aussen-T/F 101 29-05-2009 20:11:23 24.5 C 20 % 0.09 C
102 29-05-2009 20:23:23 23.7 C 20 % -0.57 C
103 29-05-2009 20:35:02 23.2 C 20 % -0.98 C
104 29-05-2009 20:47:02 22.5 C 22 % -0.25 C
105 29-05-2009 20:59:02 21.6 C 27 % 1.82 C
106 29-05-2009 21:11:02 20.2 C 29 % 1.62 C
107 29-05-2009 21:23:02 19.1 C 30 % 1.14 C
108 29-05-2009 21:35:01 18.4 C 32 % 1.43 C
109 29-05-2009 21:47:02 18.1 C 32 % 1.17 C
110 29-05-2009 21:59:02 18 C 32 % 1.08 C
111 29-05-2009 22:11:01 17.8 C 34 % 1.75 C
112 29-05-2009 22:23:01 17.4 C 34 % 1.4 C
113 29-05-2009 22:35:01 16.8 C 36 % 1.66 C
114 29-05-2009 22:48:02 16.4 C 36 % 1.31 C
115 29-05-2009 23:00:02 16.2 C 37 % 1.51 C
116 29-05-2009 23:12:02 15.7 C 38 % 1.44 C
117 29-05-2009 23:24:03 15.4 C 39 % 1.53 C
118 29-05-2009 23:36:03 15 C 40 % 1.53 C
119 29-05-2009 23:48:03 14.5 C 45 % 2.72 C
120 30-05-2009 00:00:03 14.4 C 44 % 2.32 C
121 30-05-2009 00:12:03 14.3 C 46 % 2.85 C
122 30-05-2009 00:24:03 14.1 C 45 % 2.36 C
123 30-05-2009 00:36:03 13.8 C 46 % 2.4 C
124 30-05-2009 00:48:03 13.5 C 46 % 2.12 C
125 30-05-2009 01:00:03 13.4 C 47 % 2.33 C
Sensor: Nr:Datum:Temp:Feuchte:Taupunkt:
Aussen-T/F 126 30-05-2009 01:12:03 13 C 50 % 2.83 C
127 30-05-2009 01:24:03 12.8 C 51 % 2.93 C
128 30-05-2009 01:36:03 12.7 C 50 % 2.56 C
129 30-05-2009 01:48:03 12.4 C 53 % 3.1 C
130 30-05-2009 02:00:03 12.1 C 55 % 3.34 C
131 30-05-2009 02:12:03 11.9 C 57 % 3.66 C
132 30-05-2009 02:24:03 11.6 C 58 % 3.63 C
133 30-05-2009 02:36:03 11.5 C 58 % 3.54 C
134 30-05-2009 02:48:03 11.5 C 59 % 3.78 C
135 30-05-2009 03:00:03 11.4 C 58 % 3.44 C
136 30-05-2009 03:12:03 11.4 C 56 % 2.95 C
137 30-05-2009 03:24:04 11.5 C 55 % 2.79 C
138 30-05-2009 03:36:04 11.4 C 56 % 2.95 C
139 30-05-2009 03:48:04 11.3 C 56 % 2.85 C
140 30-05-2009 04:00:04 11.1 C 57 % 2.92 C
141 30-05-2009 04:12:04 11 C 59 % 3.31 C
142 30-05-2009 04:24:04 10.8 C 60 % 3.36 C
143 30-05-2009 04:36:04 10.8 C 60 % 3.36 C
144 30-05-2009 04:48:04 10.7 C 60 % 3.26 C
145 30-05-2009 05:00:04 10.6 C 61 % 3.4 C
146 30-05-2009 05:12:04 10.4 C 61 % 3.21 C
147 30-05-2009 05:24:04 10.2 C 65 % 3.92 C
148 30-05-2009 05:36:04 10.1 C 67 % 4.26 C
149 30-05-2009 05:48:04 10 C 70 % 4.79 C
150 30-05-2009 06:00:04 9.9 C 70 % 4.69 C
Sensor: Nr:Datum:Temp:Feuchte:Taupunkt:
Aussen-T/F 151 30-05-2009 06:12:04 9.9 C 70 % 4.69 C
152 30-05-2009 06:24:04 9.9 C 70 % 4.69 C
153 30-05-2009 06:36:04 9.9 C 72 % 5.1 C
154 30-05-2009 06:48:04 10 C 71 % 4.99 C
155 30-05-2009 07:00:04 10.1 C 71 % 5.09 C
156 30-05-2009 07:12:04 10.3 C 72 % 5.48 C
157 30-05-2009 07:24:05 10.5 C 71 % 5.47 C
158 30-05-2009 07:36:02 10.8 C 70 % 5.56 C
159 30-05-2009 07:48:02 11.1 C 69 % 5.64 C
160 30-05-2009 08:00:02 11.4 C 68 % 5.71 C
161 30-05-2009 08:12:01 11.7 C 66 % 5.57 C
162 30-05-2009 08:24:02 12.3 C 63 % 5.47 C
163 30-05-2009 08:36:02 12.7 C 60 % 5.14 C
164 30-05-2009 08:48:01 13.4 C 56 % 4.81 C
165 30-05-2009 09:00:01 13.8 C 53 % 4.4 C
166 30-05-2009 09:12:02 14.2 C 52 % 4.5 C
167 30-05-2009 09:24:01 14.8 C 50 % 4.49 C
168 30-05-2009 09:36:01 15.3 C 49 % 4.66 C
169 30-05-2009 09:48:01 15.9 C 47 % 4.61 C
170 30-05-2009 10:00:01 16.5 C 45 % 4.54 C
171 30-05-2009 10:12:01 16.9 C 42 % 3.92 C
172 30-05-2009 10:24:00 17.6 C 41 % 4.21 C
173 30-05-2009 10:36:00 18.2 C 40 % 4.39 C
174 30-05-2009 10:48:00 18.9 C 40 % 5.02 C
175 30-05-2009 11:00:00 19.6 C 37 % 4.53 C
Sensor: Nr:Datum:Temp:Feuchte:Taupunkt:
Aussen-T/F 176 30-05-2009 11:12:00 19.6 C 37 % 4.53 C
177 30-05-2009 11:24:00 19.9 C 36 % 4.4 C
178 30-05-2009 11:36:00 20.6 C 35 % 4.62 C
179 30-05-2009 11:48:00 21.2 C 32 % 3.87 C
180 30-05-2009 12:00:00 21.4 C 29 % 2.65 C
181 30-05-2009 12:12:59 23 C 26 % 2.48 C
182 30-05-2009 12:24:00 21.6 C 29 % 2.82 C
183 30-05-2009 12:36:00 22.1 C 26 % 1.72 C
184 30-05-2009 12:48:59 22 C 26 % 1.63 C
185 30-05-2009 13:00:59 21.5 C 27 % 1.73 C
186 30-05-2009 13:11:59 24.3 C 23 % 1.86 C
187 30-05-2009 13:24:59 26.5 C 20 % 1.74 C
188 30-05-2009 13:36:59 26.6 C 20 % 1.82 C
189 30-05-2009 13:48:58 25.8 C 20 % 1.16 C
190 30-05-2009 14:00:59 24.9 C 20 % 0.42 C
191 30-05-2009 14:13:00 23.2 C 20 % -0.98 C
192 30-05-2009 14:24:58 22.7 C 23 % 0.52 C
193 30-05-2009 14:36:58 24.1 C 20 % -0.24 C
194 30-05-2009 14:48:58 25.7 C 20 % 1.08 C
195 30-05-2009 15:00:58 25.4 C 20 % 0.83 C
196 30-05-2009 15:12:58 25.1 C 20 % 0.59 C
197 30-05-2009 15:24:58 25.7 C 20 % 1.08 C
198 30-05-2009 15:36:57 26.6 C 20 % 1.82 C
199 30-05-2009 15:48:58 25.3 C 20 % 0.75 C
200 30-05-2009 16:00:57 26 C 20 % 1.32 C
Sensor: Nr:Datum:Temp:Feuchte:Taupunkt:
Aussen-T/F 201 30-05-2009 16:12:57 27.5 C 20 % 2.56 C
202 30-05-2009 16:24:57 28.2 C 20 % 3.13 C
203 30-05-2009 16:36:58 28.2 C 20 % 3.13 C
204 30-05-2009 16:48:57 29.1 C 20 % 3.87 C
205 30-05-2009 17:00:57 28.6 C 20 % 3.46 C
206 30-05-2009 17:12:57 28.3 C 20 % 3.21 C
207 30-05-2009 17:24:57 26.9 C 20 % 2.06 C
208 30-05-2009 17:36:57 25.1 C 20 % 0.59 C
209 30-05-2009 17:48:56 27.9 C 20 % 2.88 C
210 30-05-2009 18:00:56 28.6 C 20 % 3.46 C
211 30-05-2009 18:12:57 29.4 C 20 % 4.11 C
212 30-05-2009 18:24:56 26.6 C 20 % 1.82 C
213 30-05-2009 18:36:56 25.2 C 20 % 0.67 C
214 30-05-2009 18:48:55 25.7 C 20 % 1.08 C
215 30-05-2009 19:00:56 26.9 C 20 % 2.06 C
216 30-05-2009 19:12:56 27.2 C 20 % 2.31 C
217 30-05-2009 19:24:56 27.1 C 20 % 2.23 C
218 30-05-2009 19:36:55 26.8 C 20 % 1.98 C
219 30-05-2009 19:48:56 26.1 C 20 % 1.41 C
220 30-05-2009 20:00:55 25.5 C 20 % 0.91 C
221 30-05-2009 20:12:55 25.1 C 21 % 1.26 C
222 30-05-2009 20:24:55 24.5 C 22 % 1.41 C
223 30-05-2009 20:36:55 23.6 C 25 % 2.44 C
224 30-05-2009 20:48:55 22.6 C 27 % 2.67 C
225 30-05-2009 21:00:55 21.6 C 31 % 3.76 C
Sensor: Nr:Datum:Temp:Feuchte:Taupunkt:
Aussen-T/F 226 30-05-2009 21:12:56 20.9 C 34 % 4.47 C
227 30-05-2009 21:24:54 20.4 C 35 % 4.44 C
228 30-05-2009 21:36:54 19.7 C 37 % 4.62 C
229 30-05-2009 21:48:54 19.6 C 39 % 5.28 C
230 30-05-2009 22:00:54 18.9 C 40 % 5.02 C
231 30-05-2009 22:12:54 18.7 C 42 % 5.54 C
232 30-05-2009 22:24:54 18.2 C 42 % 5.09 C
233 30-05-2009 22:36:54 17.8 C 44 % 5.4 C
234 30-05-2009 22:48:54 17.5 C 45 % 5.45 C
235 30-05-2009 23:01:54 17.5 C 46 % 5.76 C
236 30-05-2009 23:13:54 17.3 C 46 % 5.58 C
237 30-05-2009 23:25:54 17.2 C 47 % 5.8 C
238 30-05-2009 23:37:54 17 C 48 % 5.92 C
239 30-05-2009 23:49:54 17 C 48 % 5.92 C
240 31-05-2009 00:01:54 16.6 C 49 % 5.85 C
241 31-05-2009 00:13:54 16.4 C 51 % 6.25 C
242 31-05-2009 00:25:54 16.3 C 52 % 6.44 C
243 31-05-2009 00:37:54 16.6 C 52 % 6.71 C
244 31-05-2009 00:49:55 16.7 C 52 % 6.81 C
245 31-05-2009 01:01:55 16.7 C 52 % 6.81 C
246 31-05-2009 01:13:55 16.4 C 53 % 6.81 C
247 31-05-2009 01:25:55 16 C 54 % 6.71 C
248 31-05-2009 01:37:55 15.5 C 56 % 6.77 C
249 31-05-2009 01:49:55 15.6 C 58 % 7.37 C
250 31-05-2009 02:01:55 15.8 C 57 % 7.31 C
Sensor: Nr:Datum:Temp:Feuchte:Taupunkt:
Aussen-T/F 251 31-05-2009 02:13:55 15.8 C 57 % 7.31 C
252 31-05-2009 02:25:55 15.7 C 58 % 7.47 C
253 31-05-2009 02:37:55 15.9 C 58 % 7.66 C
254 31-05-2009 02:49:55 15.9 C 58 % 7.66 C
255 31-05-2009 03:01:55 15.8 C 58 % 7.56 C
256 31-05-2009 03:13:55 15.9 C 57 % 7.4 C
257 31-05-2009 03:25:55 15.6 C 58 % 7.37 C
258 31-05-2009 03:37:55 15.5 C 59 % 7.53 C
259 31-05-2009 03:49:55 15.5 C 59 % 7.53 C
260 31-05-2009 04:01:55 15.6 C 60 % 7.87 C
261 31-05-2009 04:13:55 15.5 C 60 % 7.78 C
262 31-05-2009 04:25:55 15.2 C 61 % 7.74 C
263 31-05-2009 04:37:56 15.4 C 61 % 7.93 C
264 31-05-2009 04:49:56 15.5 C 61 % 8.02 C
265 31-05-2009 05:01:56 15.5 C 61 % 8.02 C
266 31-05-2009 05:13:56 15.4 C 61 % 7.93 C
267 31-05-2009 05:25:56 15.4 C 61 % 7.93 C
268 31-05-2009 05:37:56 15.4 C 61 % 7.93 C
269 31-05-2009 05:49:56 15.4 C 62 % 8.16 C
270 31-05-2009 06:01:56 15.3 C 62 % 8.07 C
271 31-05-2009 06:13:56 15.4 C 63 % 8.4 C
272 31-05-2009 06:25:56 15.6 C 63 % 8.59 C
273 31-05-2009 06:37:56 15.8 C 62 % 8.54 C
274 31-05-2009 06:49:56 15.9 C 62 % 8.64 C
275 31-05-2009 07:01:56 16 C 61 % 8.49 C
Sensor: Nr:Datum:Temp:Feuchte:Taupunkt:
Aussen-T/F 276 31-05-2009 07:13:56 15.9 C 61 % 8.4 C
277 31-05-2009 07:25:56 16 C 61 % 8.49 C
278 31-05-2009 07:37:56 16 C 63 % 8.97 C
279 31-05-2009 07:49:56 16 C 63 % 8.97 C
280 31-05-2009 08:01:54 15.9 C 64 % 9.11 C
281 31-05-2009 08:13:54 16.2 C 64 % 9.39 C
282 31-05-2009 08:25:54 16.7 C 63 % 9.63 C
283 31-05-2009 08:37:53 17.5 C 59 % 9.41 C
284 31-05-2009 08:49:54 17.6 C 58 % 9.25 C
285 31-05-2009 09:01:53 17.7 C 58 % 9.34 C
286 31-05-2009 09:13:53 18.3 C 55 % 9.11 C
287 31-05-2009 09:25:53 18.6 C 54 % 9.12 C
288 31-05-2009 09:37:54 18.9 C 53 % 9.12 C
289 31-05-2009 09:49:53 18.9 C 51 % 8.55 C
290 31-05-2009 10:01:53 19.3 C 50 % 8.63 C
291 31-05-2009 10:13:53 20.1 C 48 % 8.76 C
292 31-05-2009 10:25:53 20.4 C 45 % 8.08 C
293 31-05-2009 10:37:53 20.5 C 45 % 8.17 C
294 31-05-2009 10:49:52 20.5 C 46 % 8.49 C
295 31-05-2009 11:01:53 20.9 C 44 % 8.2 C
296 31-05-2009 11:13:54 21.2 C 42 % 7.79 C
297 31-05-2009 11:25:52 21.4 C 40 % 7.25 C
298 31-05-2009 11:37:52 21.9 C 39 % 7.33 C
299 31-05-2009 11:49:51 22.4 C 37 % 7.01 C
300 31-05-2009 12:01:52 23.3 C 34 % 6.57 C
Sensor: Nr:Datum:Temp:Feuchte:Taupunkt:
Aussen-T/F 301 31-05-2009 12:13:52 23.9 C 33 % 6.66 C
302 31-05-2009 12:25:52 23 C 33 % 5.88 C
303 31-05-2009 12:37:51 22.7 C 35 % 6.46 C
304 31-05-2009 12:49:52 22.2 C 36 % 6.43 C
305 31-05-2009 13:01:51 23.1 C 33 % 5.96 C
306 31-05-2009 13:13:51 25.6 C 27 % 5.23 C
307 31-05-2009 13:25:51 26.1 C 22 % 2.74 C
308 31-05-2009 13:37:51 23.5 C 29 % 4.45 C
309 31-05-2009 13:49:51 23.1 C 29 % 4.11 C
310 31-05-2009 14:01:51 24.5 C 29 % 5.31 C
311 31-05-2009 14:13:51 25 C 27 % 4.72 C
312 31-05-2009 14:25:50 25.4 C 25 % 3.96 C
313 31-05-2009 14:37:51 25.7 C 25 % 4.21 C
314 31-05-2009 14:49:50 25.6 C 25 % 4.13 C
315 31-05-2009 15:01:50 25.8 C 22 % 2.49 C
316 31-05-2009 15:13:50 26.3 C 21 % 2.25 C
317 31-05-2009 15:25:50 25.6 C 21 % 1.67 C
318 31-05-2009 15:37:50 26.7 C 21 % 2.58 C
319 31-05-2009 15:49:49 27.4 C 20 % 2.47 C
320 31-05-2009 16:01:50 27.1 C 20 % 2.23 C
321 31-05-2009 16:13:50 27.1 C 20 % 2.23 C
322 31-05-2009 16:25:50 28.1 C 20 % 3.05 C
323 31-05-2009 16:37:49 27.1 C 20 % 2.23 C
324 31-05-2009 16:49:50 27 C 20 % 2.15 C
325 31-05-2009 17:01:49 25.4 C 23 % 2.78 C
Sensor: Nr:Datum:Temp:Feuchte:Taupunkt:
Aussen-T/F 326 31-05-2009 17:13:49 25.5 C 22 % 2.24 C
327 31-05-2009 17:25:49 25.8 C 22 % 2.49 C
328 31-05-2009 17:37:48 25.8 C 23 % 3.12 C
329 31-05-2009 17:49:49 25.5 C 22 % 2.24 C
330 31-05-2009 18:01:48 24.8 C 24 % 2.88 C
331 31-05-2009 18:13:48 27.5 C 20 % 2.56 C
332 31-05-2009 18:25:48 25.6 C 22 % 2.32 C
333 31-05-2009 18:37:49 25.7 C 24 % 3.63 C
334 31-05-2009 18:49:48 27 C 21 % 2.83 C
335 31-05-2009 19:01:48 27.5 C 21 % 3.24 C
336 31-05-2009 19:13:48 27.5 C 21 % 3.24 C
337 31-05-2009 19:25:48 27.6 C 21 % 3.33 C
338 31-05-2009 19:37:47 26.8 C 22 % 3.32 C
339 31-05-2009 19:49:48 25.6 C 25 % 4.13 C
340 31-05-2009 20:01:47 24.1 C 26 % 3.42 C
341 31-05-2009 20:13:47 24.1 C 27 % 3.95 C
342 31-05-2009 20:25:48 23.3 C 29 % 4.28 C
343 31-05-2009 20:37:47 22.9 C 31 % 4.89 C
344 31-05-2009 20:49:47 22.2 C 33 % 5.18 C
345 31-05-2009 21:01:47 21.4 C 36 % 5.73 C
346 31-05-2009 21:13:47 20.8 C 38 % 5.97 C
347 31-05-2009 21:25:47 20 C 38 % 5.26 C
348 31-05-2009 21:37:46 19.6 C 40 % 5.64 C
349 31-05-2009 21:49:47 19.2 C 41 % 5.64 C
350 31-05-2009 22:01:46 18.9 C 43 % 6.06 C
Sensor: Nr:Datum:Temp:Feuchte:Taupunkt:
Aussen-T/F 351 31-05-2009 22:13:46 18.6 C 44 % 6.12 C
352 31-05-2009 22:25:46 18.4 C 45 % 6.26 C
353 31-05-2009 22:37:46 18 C 46 % 6.22 C
354 31-05-2009 22:49:01 17.8 C 48 % 6.65 C
355 31-05-2009 23:01:01 17.7 C 48 % 6.56 C
356 31-05-2009 23:13:01 17.4 C 49 % 6.59 C
357 31-05-2009 23:25:01 17.2 C 50 % 6.7 C
358 31-05-2009 23:37:01 16.9 C 51 % 6.71 C
359 31-05-2009 23:49:00 16.6 C 52 % 6.71 C
360 01-06-2009 00:01:00 16.6 C 53 % 6.99 C
361 01-06-2009 00:13:00 16.3 C 54 % 6.98 C
362 01-06-2009 00:26:01 16.1 C 55 % 7.07 C
363 01-06-2009 00:38:01 15.9 C 58 % 7.66 C
364 01-06-2009 00:50:01 15.6 C 59 % 7.62 C
365 01-06-2009 01:02:01 15.6 C 60 % 7.87 C
366 01-06-2009 01:14:01 15.2 C 61 % 7.74 C
367 01-06-2009 01:26:01 14.9 C 62 % 7.69 C
368 01-06-2009 01:38:01 14.8 C 64 % 8.06 C
369 01-06-2009 01:50:01 14.6 C 64 % 7.87 C
370 01-06-2009 02:02:01 14.5 C 64 % 7.78 C
371 01-06-2009 02:14:01 14.3 C 66 % 8.04 C
372 01-06-2009 02:26:01 14.1 C 67 % 8.07 C
373 01-06-2009 02:38:01 13.7 C 68 % 7.91 C
374 01-06-2009 02:50:01 13.8 C 69 % 8.22 C
375 01-06-2009 03:02:01 13.6 C 70 % 8.24 C
Sensor: Nr:Datum:Temp:Feuchte:Taupunkt:
Aussen-T/F 376 01-06-2009 03:14:01 13.4 C 71 % 8.26 C
377 01-06-2009 03:26:01 13.3 C 71 % 8.16 C
378 01-06-2009 03:38:01 13.1 C 72 % 8.17 C
379 01-06-2009 03:50:01 13 C 73 % 8.28 C
380 01-06-2009 04:02:01 12.9 C 74 % 8.38 C
381 01-06-2009 04:14:02 12.8 C 75 % 8.48 C
382 01-06-2009 04:26:02 12.6 C 75 % 8.29 C
383 01-06-2009 04:38:02 12.5 C 76 % 8.39 C
384 01-06-2009 04:50:02 12.4 C 76 % 8.29 C
385 01-06-2009 05:02:02 12.2 C 76 % 8.1 C
386 01-06-2009 05:14:02 12.3 C 76 % 8.2 C
387 01-06-2009 05:26:02 12.4 C 77 % 8.49 C
388 01-06-2009 05:38:02 12.6 C 77 % 8.68 C
389 01-06-2009 05:50:02 12.8 C 76 % 8.68 C
390 01-06-2009 06:02:02 12.8 C 76 % 8.68 C
391 01-06-2009 06:14:02 13 C 74 % 8.48 C
392 01-06-2009 06:26:02 13.2 C 74 % 8.67 C
393 01-06-2009 06:38:02 13.2 C 73 % 8.47 C
394 01-06-2009 06:50:02 13.5 C 73 % 8.76 C
395 01-06-2009 07:02:02 13.5 C 73 % 8.76 C
396 01-06-2009 07:14:02 13.6 C 73 % 8.86 C
397 01-06-2009 07:26:02 13.8 C 73 % 9.05 C
398 01-06-2009 07:38:02 14.3 C 71 % 9.12 C
399 01-06-2009 07:50:02 14.4 C 70 % 9 C
400 01-06-2009 08:02:03 14.3 C 71 % 9.12 C
Sensor: Nr:Datum:Temp:Feuchte:Taupunkt:
Aussen-T/F 401 01-06-2009 08:14:03 14.5 C 71 % 9.31 C
402 01-06-2009 08:26:03 15.1 C 69 % 9.46 C
403 01-06-2009 08:38:01 15.9 C 66 % 9.56 C
404 01-06-2009 08:50:01 16.9 C 62 % 9.58 C
405 01-06-2009 09:02:00 17.1 C 60 % 9.28 C
406 01-06-2009 09:14:00 17.6 C 60 % 9.75 C
407 01-06-2009 09:26:01 18.2 C 56 % 9.29 C
408 01-06-2009 09:38:01 18.3 C 56 % 9.38 C
409 01-06-2009 09:50:00 18.7 C 55 % 9.48 C
410 01-06-2009 10:02:01 19.6 C 52 % 9.48 C
411 01-06-2009 10:14:01 20.1 C 49 % 9.06 C
412 01-06-2009 10:26:00 20.8 C 49 % 9.7 C
413 01-06-2009 10:38:00 21.7 C 48 % 10.22 C
414 01-06-2009 10:50:00 22.1 C 43 % 8.95 C
415 01-06-2009 11:14:00 22.5 C 42 % 8.96 C
416 01-06-2009 11:14:00 22.8 C 42 % 9.23 C
417 01-06-2009 11:26:00 22.6 C 42 % 9.05 C
418 01-06-2009 11:37:59 23.3 C 39 % 8.58 C
419 01-06-2009 11:50:59 24.5 C 36 % 8.46 C
420 01-06-2009 12:02:59 24.5 C 35 % 8.05 C
421 01-06-2009 12:14:58 25.7 C 31 % 7.31 C
422 01-06-2009 12:26:58 26.5 C 31 % 8.01 C
423 01-06-2009 12:38:59 26.8 C 29 % 7.29 C
424 01-06-2009 12:50:58 26.2 C 30 % 7.27 C
425 01-06-2009 13:02:58 25.4 C 35 % 8.84 C
Sensor: Nr:Datum:Temp:Feuchte:Taupunkt:
Aussen-T/F 426 01-06-2009 13:14:59 24.8 C 38 % 9.53 C
427 01-06-2009 13:26:59 25.6 C 34 % 8.58 C
428 01-06-2009 13:38:58 25.7 C 35 % 9.1 C
429 01-06-2009 13:50:58 24.4 C 38 % 9.17 C
430 01-06-2009 14:02:58 19.6 C 54 % 10.05 C
431 01-06-2009 14:14:58 19 C 72 % 13.84 C
432 01-06-2009 14:26:59 20.1 C 73 % 15.11 C
433 01-06-2009 14:38:57 22.4 C 56 % 13.2 C
434 01-06-2009 14:50:57 22.7 C 55 % 13.2 C
435 01-06-2009 15:02:57 22.1 C 62 % 14.48 C
436 01-06-2009 15:14:57 22.6 C 61 % 14.7 C
437 01-06-2009 15:26:57 23.7 C 54 % 13.84 C
438 01-06-2009 15:38:57 23.6 C 56 % 14.31 C
439 01-06-2009 15:50:57 24.6 C 50 % 13.49 C
440 01-06-2009 16:02:57 25.9 C 39 % 10.89 C
441 01-06-2009 16:14:56 26.9 C 34 % 9.72 C
442 01-06-2009 16:26:56 28.8 C 26 % 7.4 C
443 01-06-2009 16:38:56 29.4 C 23 % 6.12 C
444 01-06-2009 16:50:56 25.6 C 29 % 6.26 C
445 01-06-2009 17:02:56 21.6 C 61 % 13.76 C
446 01-06-2009 17:14:56 22.4 C 59 % 14 C
447 01-06-2009 17:26:56 23.3 C 55 % 13.76 C
448 01-06-2009 17:38:56 24.3 C 47 % 12.27 C
449 01-06-2009 17:50:56 24.7 C 44 % 11.63 C
450 01-06-2009 18:02:55 24.7 C 42 % 10.93 C
Sensor: Nr:Datum:Temp:Feuchte:Taupunkt:
Aussen-T/F 451 01-06-2009 18:14:56 25.4 C 38 % 10.06 C
452 01-06-2009 18:26:57 25.9 C 39 % 10.89 C
453 01-06-2009 18:38:55 28 C 30 % 8.82 C
454 01-06-2009 18:50:55 27.4 C 34 % 10.16 C
455 01-06-2009 19:02:54 25.6 C 37 % 9.84 C
456 01-06-2009 19:14:55 23.7 C 39 % 8.93 C
457 01-06-2009 19:26:55 24.2 C 37 % 8.6 C
458 01-06-2009 19:38:55 25.3 C 35 % 8.75 C
459 01-06-2009 19:50:54 25.3 C 33 % 7.88 C
460 01-06-2009 20:02:55 25.2 C 33 % 7.79 C
461 01-06-2009 20:14:54 24.9 C 34 % 7.97 C
462 01-06-2009 20:26:54 24.5 C 34 % 7.62 C
463 01-06-2009 20:38:54 23.7 C 35 % 7.34 C
464 01-06-2009 20:50:54 22.6 C 39 % 7.95 C
465 01-06-2009 21:02:53 22.1 C 44 % 9.29 C
466 01-06-2009 21:14:54 21.1 C 46 % 9.04 C
467 01-06-2009 21:26:54 20.3 C 49 % 9.24 C
468 01-06-2009 21:38:54 19.7 C 50 % 8.99 C
469 01-06-2009 21:50:53 19.3 C 52 % 9.21 C
470 01-06-2009 22:02:54 19 C 53 % 9.21 C
471 01-06-2009 22:14:53 18.6 C 56 % 9.66 C
472 01-06-2009 22:26:53 18.4 C 56 % 9.47 C
473 01-06-2009 22:39:09 18.1 C 58 % 9.71 C
474 01-06-2009 22:51:09 17.8 C 60 % 9.94 C
475 01-06-2009 23:03:09 17.4 C 60 % 9.56 C
Sensor: Nr:Datum:Temp:Feuchte:Taupunkt:
Aussen-T/F 476 01-06-2009 23:15:09 17.2 C 61 % 9.62 C
477 01-06-2009 23:27:09 17 C 63 % 9.91 C
478 01-06-2009 23:39:09 16.9 C 64 % 10.05 C
479 01-06-2009 23:51:09 16.6 C 65 % 10 C
480 02-06-2009 00:03:09 16.4 C 66 % 10.04 C
481 02-06-2009 00:15:09 16.1 C 67 % 9.98 C
482 02-06-2009 00:27:09 16 C 68 % 10.1 C
483 02-06-2009 00:39:09 15.8 C 71 % 10.56 C
484 02-06-2009 00:51:09 15.5 C 73 % 10.69 C
485 02-06-2009 01:03:09 15.3 C 74 % 10.7 C
486 02-06-2009 01:15:09 15 C 75 % 10.61 C
487 02-06-2009 01:27:10 14.9 C 76 % 10.71 C
488 02-06-2009 01:39:10 14.7 C 78 % 10.91 C
489 02-06-2009 01:51:10 14.6 C 78 % 10.81 C
490 02-06-2009 02:03:10 14.4 C 78 % 10.62 C
491 02-06-2009 02:15:10 14.1 C 79 % 10.52 C
492 02-06-2009 02:27:10 14 C 80 % 10.61 C
493 02-06-2009 02:39:10 13.7 C 81 % 10.5 C
494 02-06-2009 02:51:10 13.7 C 81 % 10.5 C
495 02-06-2009 03:03:10 13.7 C 81 % 10.5 C
496 02-06-2009 03:15:10 13.5 C 82 % 10.49 C
497 02-06-2009 03:27:10 13.4 C 82 % 10.39 C
498 02-06-2009 03:39:10 13.4 C 82 % 10.39 C
499 02-06-2009 03:51:10 13.4 C 82 % 10.39 C
500 02-06-2009 04:03:10 13.4 C 81 % 10.21 C
Sensor: Nr:Datum:Temp:Feuchte:Taupunkt:
Aussen-T/F 501 02-06-2009 04:15:10 13.2 C 81 % 10.01 C
502 02-06-2009 04:27:10 13 C 81 % 9.82 C
503 02-06-2009 04:39:10 12.9 C 83 % 10.09 C
504 02-06-2009 04:51:10 12.8 C 83 % 9.99 C
505 02-06-2009 05:03:10 12.7 C 84 % 10.07 C
506 02-06-2009 05:15:11 12.5 C 84 % 9.87 C
507 02-06-2009 05:27:11 12.4 C 84 % 9.78 C
508 02-06-2009 05:39:11 12.4 C 84 % 9.78 C
509 02-06-2009 05:51:11 12.4 C 84 % 9.78 C
510 02-06-2009 06:03:11 12.4 C 84 % 9.78 C
511 02-06-2009 06:15:11 12.6 C 83 % 9.79 C
512 02-06-2009 06:27:11 12.9 C 79 % 9.35 C
513 02-06-2009 06:39:54 13.1 C 72 % 8.17 C
514 02-06-2009 06:51:54 13.5 C 68 % 7.72 C
515 02-06-2009 07:03:53 13.6 C 66 % 7.38 C
516 02-06-2009 07:15:54 13.7 C 65 % 7.25 C
517 02-06-2009 07:27:54 13.8 C 66 % 7.57 C
518 02-06-2009 07:39:53 13.7 C 65 % 7.25 C
519 02-06-2009 07:51:53 14 C 63 % 7.08 C
520 02-06-2009 08:03:53 14.2 C 64 % 7.5 C
521 02-06-2009 08:15:53 14.4 C 64 % 7.68 C
522 02-06-2009 08:27:53 14.6 C 61 % 7.17 C
523 02-06-2009 08:39:53 14.7 C 61 % 7.27 C
524 02-06-2009 08:51:53 15.1 C 60 % 7.4 C
525 02-06-2009 09:03:53 15.5 C 59 % 7.53 C
Sensor: Nr:Datum:Temp:Feuchte:Taupunkt:
Aussen-T/F 526 02-06-2009 09:15:52 15.8 C 58 % 7.56 C
527 02-06-2009 09:27:52 16 C 56 % 7.24 C
528 02-06-2009 09:39:53 16.5 C 56 % 7.7 C
529 02-06-2009 09:51:52 17 C 54 % 7.63 C
530 02-06-2009 10:03:52 17.6 C 52 % 7.64 C
531 02-06-2009 10:15:51 18 C 51 % 7.72 C
532 02-06-2009 10:27:51 18.3 C 50 % 7.71 C
533 02-06-2009 10:39:52 18.8 C 48 % 7.57 C
534 02-06-2009 10:51:51 18.8 C 47 % 7.26 C
535 02-06-2009 11:03:51 19.3 C 47 % 7.72 C
536 02-06-2009 11:15:52 19.5 C 47 % 7.9 C
537 02-06-2009 11:27:52 20.6 C 46 % 8.58 C
538 02-06-2009 11:39:51 20.5 C 46 % 8.49 C
539 02-06-2009 11:51:51 20.8 C 45 % 8.44 C
540 02-06-2009 12:03:51 21.8 C 41 % 7.97 C
541 02-06-2009 12:15:51 22.4 C 39 % 7.78 C
542 02-06-2009 12:27:51 23.8 C 36 % 7.84 C
543 02-06-2009 12:39:50 23.2 C 35 % 6.9 C
544 02-06-2009 12:51:51 23.8 C 34 % 7.01 C
545 02-06-2009 13:03:50 24.1 C 32 % 6.39 C
546 02-06-2009 13:15:50 24.3 C 31 % 6.1 C
547 02-06-2009 13:27:50 24.4 C 29 % 5.23 C
548 02-06-2009 13:39:50 24.6 C 26 % 3.84 C
549 02-06-2009 13:51:50 24.4 C 25 % 3.12 C
550 02-06-2009 14:03:50 24.3 C 25 % 3.03 C
Sensor: Nr:Datum:Temp:Feuchte:Taupunkt:
Aussen-T/F 551 02-06-2009 14:15:49 24.6 C 26 % 3.84 C
552 02-06-2009 14:27:49 24 C 27 % 3.87 C
553 02-06-2009 14:39:50 25.2 C 25 % 3.79 C
554 02-06-2009 14:51:49 24.6 C 25 % 3.29 C
555 02-06-2009 15:03:49 24.7 C 23 % 2.2 C
556 02-06-2009 15:15:48 25.4 C 23 % 2.78 C
557 02-06-2009 15:27:48 25.7 C 21 % 1.76 C
558 02-06-2009 15:39:49 25.9 C 23 % 3.2 C
559 02-06-2009 15:51:48 27 C 21 % 2.83 C
560 02-06-2009 16:03:48 26.5 C 23 % 3.7 C
561 02-06-2009 16:15:49 26 C 21 % 2 C
562 02-06-2009 16:27:49 26.7 C 20 % 1.9 C
563 02-06-2009 16:39:48 27.1 C 20 % 2.23 C
564 02-06-2009 16:51:48 27 C 20 % 2.15 C
565 02-06-2009 17:03:48 27.8 C 20 % 2.8 C
566 02-06-2009 17:15:48 27.5 C 20 % 2.56 C
567 02-06-2009 17:27:49 27.1 C 20 % 2.23 C
568 02-06-2009 17:39:47 27.8 C 20 % 2.8 C
569 02-06-2009 17:51:48 27.6 C 20 % 2.64 C
570 02-06-2009 18:03:48 27.8 C 20 % 2.8 C
571 02-06-2009 18:15:47 28.1 C 20 % 3.05 C
572 02-06-2009 18:27:47 28.5 C 20 % 3.38 C
573 02-06-2009 18:39:47 29.2 C 20 % 3.95 C
574 02-06-2009 18:51:47 27.5 C 20 % 2.56 C
575 02-06-2009 19:03:47 28.6 C 20 % 3.46 C
Sensor: Nr:Datum:Temp:Feuchte:Taupunkt:
Aussen-T/F 576 02-06-2009 19:15:46 28.2 C 20 % 3.13 C
577 02-06-2009 19:27:46 28.1 C 20 % 3.05 C
578 02-06-2009 19:39:47 27.4 C 20 % 2.47 C
579 02-06-2009 19:51:46 27.9 C 21 % 3.57 C
580 02-06-2009 20:03:46 27.6 C 21 % 3.33 C
581 02-06-2009 20:15:46 27.3 C 21 % 3.08 C
582 02-06-2009 20:27:46 26.4 C 23 % 3.62 C
583 02-06-2009 20:39:46 25.3 C 25 % 3.88 C
584 02-06-2009 20:51:46 24.2 C 26 % 3.5 C
585 02-06-2009 21:03:45 23.9 C 26 % 3.25 C
586 02-06-2009 21:15:46 23.3 C 25 % 2.19 C
587 02-06-2009 21:27:46 22.7 C 27 % 2.76 C
588 02-06-2009 21:39:45 22.4 C 28 % 3.01 C
589 02-06-2009 21:51:13 22.1 C 28 % 2.76 C
590 02-06-2009 22:03:13 21.7 C 30 % 3.39 C
591 02-06-2009 22:15:13 21.5 C 30 % 3.21 C
592 02-06-2009 22:27:13 21.2 C 30 % 2.95 C
593 02-06-2009 22:39:13 20.9 C 32 % 3.61 C
594 02-06-2009 22:51:13 20.6 C 33 % 3.78 C
595 02-06-2009 23:03:13 20.3 C 33 % 3.52 C
596 02-06-2009 23:15:13 20.2 C 33 % 3.43 C
597 02-06-2009 23:27:45 19.9 C 34 % 3.59 C
598 02-06-2009 23:39:45 19.7 C 34 % 3.41 C
599 02-06-2009 23:51:45 19.9 C 35 % 4 C
600 03-06-2009 00:03:45 19.7 C 34 % 3.41 C
Sensor: Nr:Datum:Temp:Feuchte:Taupunkt:
Aussen-T/F 601 03-06-2009 00:15:45 19.4 C 34 % 3.15 C
602 03-06-2009 00:27:45 19 C 33 % 2.38 C
603 03-06-2009 00:39:44 18.6 C 35 % 2.86 C
604 03-06-2009 00:51:45 18.2 C 35 % 2.5 C
605 03-06-2009 01:03:44 17.9 C 36 % 2.63 C
606 03-06-2009 01:15:44 17.7 C 36 % 2.46 C
607 03-06-2009 01:27:44 17.3 C 36 % 2.1 C
608 03-06-2009 01:39:44 17.1 C 36 % 1.93 C
609 03-06-2009 01:51:44 16.8 C 37 % 2.04 C
610 03-06-2009 02:03:44 16.4 C 37 % 1.69 C
611 03-06-2009 02:15:43 16 C 38 % 1.71 C
612 03-06-2009 02:27:43 15.7 C 39 % 1.8 C
613 03-06-2009 02:39:44 15.4 C 43 % 2.9 C
614 03-06-2009 02:52:45 15.1 C 45 % 3.27 C
615 03-06-2009 03:04:45 15 C 45 % 3.18 C
616 03-06-2009 03:16:45 14.6 C 47 % 3.43 C
617 03-06-2009 03:28:45 14.4 C 47 % 3.25 C
618 03-06-2009 03:40:45 14.2 C 47 % 3.06 C
619 03-06-2009 03:52:45 13.8 C 50 % 3.57 C
620 03-06-2009 04:04:45 13.7 C 51 % 3.76 C
621 03-06-2009 04:16:44 13.6 C 51 % 3.67 C
622 03-06-2009 04:28:44 13.5 C 51 % 3.57 C
623 03-06-2009 04:40:45 13.3 C 52 % 3.66 C
624 03-06-2009 04:52:44 13.1 C 52 % 3.48 C
625 03-06-2009 05:04:44 13 C 52 % 3.39 C
Sensor: Nr:Datum:Temp:Feuchte:Taupunkt:
Aussen-T/F 626 03-06-2009 05:16:44 13 C 52 % 3.39 C
627 03-06-2009 05:28:44 12.8 C 53 % 3.47 C
628 03-06-2009 05:40:44 12.7 C 54 % 3.64 C
629 03-06-2009 05:52:44 12.7 C 54 % 3.64 C
630 03-06-2009 06:04:43 12.9 C 55 % 4.09 C
631 03-06-2009 06:16:43 13 C 55 % 4.18 C
632 03-06-2009 06:28:43 13 C 55 % 4.18 C
633 03-06-2009 06:40:43 13 C 56 % 4.44 C
634 03-06-2009 06:52:43 12.9 C 58 % 4.85 C
635 03-06-2009 07:04:42 12.8 C 56 % 4.25 C
636 03-06-2009 07:16:43 12.7 C 57 % 4.41 C
637 03-06-2009 07:28:43 12.5 C 55 % 3.72 C
638 03-06-2009 07:40:43 12.8 C 55 % 4 C
639 03-06-2009 07:52:42 12.9 C 55 % 4.09 C
640 03-06-2009 08:04:43 12.8 C 53 % 3.47 C
641 03-06-2009 08:16:42 12.8 C 53 % 3.47 C
642 03-06-2009 08:28:42 13 C 52 % 3.39 C
643 03-06-2009 08:40:42 13 C 50 % 2.83 C
644 03-06-2009 08:52:42 13.1 C 48 % 2.35 C
645 03-06-2009 09:04:42 13.5 C 47 % 2.42 C
646 03-06-2009 09:16:41 13.9 C 45 % 2.18 C
647 03-06-2009 09:28:41 13.9 C 42 % 1.22 C
648 03-06-2009 09:40:41 14.6 C 41 % 1.51 C
649 03-06-2009 09:52:41 14.7 C 45 % 2.91 C
650 03-06-2009 10:04:41 14.2 C 46 % 2.76 C
Sensor: Nr:Datum:Temp:Feuchte:Taupunkt:
Aussen-T/F 651 03-06-2009 10:16:41 14.9 C 41 % 1.78 C
652 03-06-2009 10:28:41 14.6 C 45 % 2.81 C
653 03-06-2009 10:40:41 15 C 42 % 2.21 C
654 03-06-2009 10:52:41 15.4 C 40 % 1.89 C
655 03-06-2009 11:04:40 14.9 C 41 % 1.78 C
656 03-06-2009 11:16:41 15.2 C 40 % 1.71 C
657 03-06-2009 11:28:41 16 C 39 % 2.07 C
658 03-06-2009 11:40:40 16.8 C 38 % 2.42 C
659 03-06-2009 11:52:40 17 C 36 % 1.84 C
660 03-06-2009 12:04:40 16.7 C 35 % 1.18 C
661 03-06-2009 12:16:40 16.8 C 34 % 0.87 C
662 03-06-2009 12:28:40 17.7 C 33 % 1.24 C
663 03-06-2009 12:40:39 17.9 C 31 % 0.55 C
664 03-06-2009 12:52:40 18.8 C 30 % 0.88 C
665 03-06-2009 13:04:40 17.3 C 30 % -0.42 C
666 03-06-2009 13:16:39 18.2 C 30 % 0.36 C
667 03-06-2009 13:28:39 19.5 C 27 % 0.03 C
668 03-06-2009 13:40:39 18.4 C 26 % -1.43 C
669 03-06-2009 13:52:39 19.8 C 25 % -0.77 C
670 03-06-2009 14:04:39 19.3 C 25 % -1.19 C
671 03-06-2009 14:16:38 20.1 C 25 % -0.52 C
672 03-06-2009 14:28:38 19.3 C 26 % -0.66 C
673 03-06-2009 14:40:39 19.1 C 27 % -0.31 C
674 03-06-2009 14:52:38 19.7 C 29 % 1.19 C
675 03-06-2009 15:04:38 20.5 C 25 % -0.18 C
Sensor: Nr:Datum:Temp:Feuchte:Taupunkt:
Aussen-T/F 676 03-06-2009 15:16:39 20 C 27 % 0.45 C
677 03-06-2009 15:28:39 20.8 C 25 % 0.07 C
678 03-06-2009 15:40:38 20.4 C 26 % 0.28 C
679 03-06-2009 15:52:37 20.9 C 25 % 0.16 C
680 03-06-2009 16:04:38 20.1 C 26 % 0.02 C
681 03-06-2009 16:16:38 20.4 C 25 % -0.26 C
682 03-06-2009 16:28:38 20.2 C 26 % 0.11 C
683 03-06-2009 16:40:37 20.3 C 27 % 0.71 C
684 03-06-2009 16:52:38 20 C 25 % -0.6 C
685 03-06-2009 17:04:37 20.3 C 26 % 0.19 C
686 03-06-2009 17:16:37 20.6 C 26 % 0.45 C
687 03-06-2009 17:28:37 20.7 C 24 % -0.57 C
688 03-06-2009 17:40:36 19.4 C 26 % -0.57 C
689 03-06-2009 17:52:37 20.6 C 23 % -1.23 C
690 03-06-2009 18:04:36 19.2 C 23 % -2.41 C
691 03-06-2009 18:16:36 20.3 C 23 % -1.49 C
692 03-06-2009 18:28:36 19.3 C 24 % -1.75 C
693 03-06-2009 18:40:37 20 C 25 % -0.6 C
694 03-06-2009 18:52:36 19 C 26 % -0.92 C
695 03-06-2009 19:04:36 19.1 C 26 % -0.83 C
696 03-06-2009 19:16:36 18.8 C 28 % -0.07 C
697 03-06-2009 19:28:36 18.1 C 30 % 0.27 C
698 03-06-2009 19:40:36 18 C 30 % 0.19 C
699 03-06-2009 19:52:36 18 C 31 % 0.64 C
700 03-06-2009 20:04:36 17.7 C 32 % 0.82 C
Sensor: Nr:Datum:Temp:Feuchte:Taupunkt:
Aussen-T/F 701 03-06-2009 20:16:36 16.9 C 35 % 1.36 C
702 03-06-2009 20:28:36 16.6 C 36 % 1.49 C
703 03-06-2009 20:40:35 16.4 C 36 % 1.31 C
704 03-06-2009 20:52:34 16.5 C 35 % 1.01 C
705 03-06-2009 21:04:35 16.1 C 35 % 0.65 C
706 03-06-2009 21:16:35 16 C 35 % 0.56 C
707 03-06-2009 21:28:35 15.9 C 36 % 0.87 C
708 03-06-2009 21:40:34 15.5 C 35 % 0.12 C
709 03-06-2009 21:52:35 15.4 C 36 % 0.42 C
710 03-06-2009 22:05:35 15.3 C 36 % 0.34 C
711 03-06-2009 22:17:35 15.2 C 36 % 0.25 C
712 03-06-2009 22:29:35 15 C 36 % 0.07 C
713 03-06-2009 22:41:35 14.7 C 38 % 0.55 C
714 03-06-2009 22:53:35 14.9 C 38 % 0.73 C
715 03-06-2009 23:05:35 14.8 C 37 % 0.27 C
716 03-06-2009 23:17:35 14.6 C 39 % 0.82 C
717 03-06-2009 23:29:36 14.5 C 40 % 1.08 C
718 03-06-2009 23:41:36 14.2 C 41 % 1.15 C
719 03-06-2009 23:53:36 14 C 42 % 1.31 C
720 04-06-2009 00:05:36 13.7 C 44 % 1.68 C
721 04-06-2009 00:17:36 13.7 C 45 % 2 C
722 04-06-2009 00:29:36 13.4 C 45 % 1.72 C
723 04-06-2009 00:41:36 13.1 C 45 % 1.45 C
724 04-06-2009 00:53:36 13 C 46 % 1.67 C
725 04-06-2009 01:05:36 12.7 C 48 % 1.99 C
Sensor: Nr:Datum:Temp:Feuchte:Taupunkt:
Aussen-T/F 726 04-06-2009 01:17:36 12.6 C 49 % 2.18 C
727 04-06-2009 01:29:36 12.7 C 49 % 2.27 C
728 04-06-2009 01:41:36 12.6 C 49 % 2.18 C
729 04-06-2009 01:53:36 12.5 C 50 % 2.37 C
730 04-06-2009 02:05:36 12.5 C 45 % 0.91 C
731 04-06-2009 02:17:36 12.4 C 43 % 0.19 C
732 04-06-2009 02:29:36 12 C 42 % -0.5 C
733 04-06-2009 02:41:36 11.9 C 42 % -0.59 C
734 04-06-2009 02:53:36 11.7 C 40 % -1.43 C
735 04-06-2009 03:05:36 11.5 C 40 % -1.61 C
736 04-06-2009 03:17:37 11.2 C 39 % -2.22 C
737 04-06-2009 03:29:37 11 C 40 % -2.06 C
738 04-06-2009 03:41:37 10.8 C 42 % -1.58 C
739 04-06-2009 03:53:37 10.9 C 43 % -1.17 C
740 04-06-2009 04:05:37 10.8 C 42 % -1.58 C
741 04-06-2009 04:17:37 10.7 C 43 % -1.35 C
742 04-06-2009 04:29:37 10.6 C 44 % -1.13 C
743 04-06-2009 04:41:37 10.6 C 45 % -0.82 C
744 04-06-2009 04:53:37 10.7 C 47 % -0.14 C
745 04-06-2009 05:05:37 10.5 C 50 % 0.53 C
746 04-06-2009 05:17:37 10.5 C 51 % 0.81 C
747 04-06-2009 05:29:37 10.6 C 52 % 1.17 C
748 04-06-2009 05:41:37 10.7 C 52 % 1.26 C
749 04-06-2009 05:53:37 10.7 C 51 % 0.99 C
750 04-06-2009 06:05:37 10.7 C 52 % 1.26 C
Sensor: Nr:Datum:Temp:Feuchte:Taupunkt:
Aussen-T/F 751 04-06-2009 06:17:37 10.7 C 51 % 0.99 C
752 04-06-2009 06:29:37 10.5 C 49 % 0.25 C
753 04-06-2009 06:41:37 10.6 C 49 % 0.35 C
754 04-06-2009 06:53:35 10.7 C 50 % 0.72 C
755 04-06-2009 07:05:35 10.7 C 50 % 0.72 C
756 04-06-2009 07:17:35 11 C 48 % 0.43 C
757 04-06-2009 07:29:35 10.8 C 51 % 1.08 C
758 04-06-2009 07:41:35 10.8 C 54 % 1.88 C
759 04-06-2009 07:53:35 11 C 53 % 1.8 C
760 04-06-2009 08:05:34 11.6 C 52 % 2.09 C
761 04-06-2009 08:17:34 11.8 C 51 % 2.01 C
762 04-06-2009 08:29:34 11.9 C 50 % 1.82 C
763 04-06-2009 08:41:34 12.2 C 48 % 1.53 C
764 04-06-2009 08:53:34 12.5 C 47 % 1.51 C
765 04-06-2009 09:05:33 13 C 43 % 0.73 C
766 04-06-2009 09:17:34 12.8 C 41 % -0.11 C
767 04-06-2009 09:29:34 12.3 C 38 % -1.59 C
768 04-06-2009 09:41:34 12.7 C 38 % -1.23 C
769 04-06-2009 09:53:33 12.9 C 40 % -0.36 C
770 04-06-2009 10:05:34 13 C 37 % -1.33 C
771 04-06-2009 10:17:33 13.1 C 39 % -0.52 C
772 04-06-2009 10:29:33 14.1 C 37 % -0.35 C
773 04-06-2009 10:41:33 13.5 C 37 % -0.89 C
774 04-06-2009 10:53:33 13.2 C 38 % -0.79 C
775 04-06-2009 11:05:33 14 C 37 % -0.44 C
Sensor: Nr:Datum:Temp:Feuchte:Taupunkt:
Aussen-T/F 776 04-06-2009 11:17:32 14.7 C 36 % -0.2 C
777 04-06-2009 11:29:32 13.3 C 35 % -1.82 C
778 04-06-2009 11:41:32 13.1 C 35 % -1.99 C
779 04-06-2009 11:53:32 13.5 C 37 % -0.89 C
780 04-06-2009 12:05:32 14.7 C 36 % -0.2 C
781 04-06-2009 12:17:32 14.5 C 35 % -0.76 C
782 04-06-2009 12:29:32 14.6 C 34 % -1.07 C
783 04-06-2009 12:41:32 14.4 C 32 % -2.06 C
784 04-06-2009 12:53:32 14.7 C 34 % -0.98 C
785 04-06-2009 13:05:31 14.7 C 35 % -0.58 C
786 04-06-2009 13:17:32 15.7 C 30 % -1.8 C
787 04-06-2009 13:29:32 15.6 C 28 % -2.82 C
788 04-06-2009 13:41:31 14.9 C 31 % -2.06 C
789 04-06-2009 13:53:31 14.4 C 32 % -2.06 C
790 04-06-2009 14:05:31 15.1 C 32 % -1.45 C
791 04-06-2009 14:17:31 16.2 C 30 % -1.37 C
792 04-06-2009 14:29:31 15.3 C 29 % -2.61 C
793 04-06-2009 14:41:31 14.8 C 29 % -3.04 C
794 04-06-2009 14:53:30 15.8 C 29 % -2.18 C
795 04-06-2009 15:05:30 16.3 C 30 % -1.28 C
796 04-06-2009 15:17:30 17.5 C 26 % -2.19 C
797 04-06-2009 15:29:30 16.1 C 26 % -3.38 C
798 04-06-2009 15:41:30 15.9 C 28 % -2.56 C
799 04-06-2009 15:53:30 16.4 C 27 % -2.62 C
800 04-06-2009 16:05:30 16.3 C 27 % -2.71 C
Sensor: Nr:Datum:Temp:Feuchte:Taupunkt:
Aussen-T/F 801 04-06-2009 16:17:30 16.2 C 26 % -3.3 C
802 04-06-2009 16:29:30 17.2 C 25 % -2.97 C
803 04-06-2009 16:41:30 16.5 C 25 % -3.57 C
804 04-06-2009 16:53:29 16.2 C 27 % -2.79 C
805 04-06-2009 17:05:29 16.1 C 28 % -2.39 C
806 04-06-2009 17:17:29 16.4 C 28 % -2.13 C
807 04-06-2009 17:29:29 15.6 C 29 % -2.35 C
808 04-06-2009 17:41:29 15.6 C 30 % -1.89 C
809 04-06-2009 17:53:28 16.2 C 30 % -1.37 C
810 04-06-2009 18:05:29 16 C 30 % -1.54 C
811 04-06-2009 18:17:29 15.8 C 31 % -1.27 C
812 04-06-2009 18:29:29 16.1 C 31 % -1.01 C
813 04-06-2009 18:41:29 15.4 C 31 % -1.62 C
814 04-06-2009 18:53:28 15.7 C 32 % -0.93 C
815 04-06-2009 19:05:28 15.3 C 32 % -1.28 C
816 04-06-2009 19:17:28 15.4 C 32 % -1.19 C
817 04-06-2009 19:29:28 15.4 C 33 % -0.77 C
818 04-06-2009 19:41:28 14.7 C 35 % -0.58 C
819 04-06-2009 19:53:28 15.1 C 35 % -0.23 C
820 04-06-2009 20:05:28 14.9 C 36 % -0.02 C
821 04-06-2009 20:17:27 14.9 C 36 % -0.02 C
822 04-06-2009 20:29:27 14.7 C 37 % 0.18 C
823 04-06-2009 20:41:27 14.5 C 38 % 0.37 C
824 04-06-2009 20:53:27 14.1 C 38 % 0.01 C
825 04-06-2009 21:05:27 14 C 39 % 0.28 C
Sensor: Nr:Datum:Temp:Feuchte:Taupunkt:
Aussen-T/F 826 04-06-2009 21:17:27 13.8 C 40 % 0.45 C
827 04-06-2009 21:29:27 13.7 C 41 % 0.7 C
828 04-06-2009 21:41:27 13.5 C 42 % 0.86 C
829 04-06-2009 21:53:27 13.5 C 43 % 1.18 C
830 04-06-2009 22:06:22 13.3 C 43 % 1 C
831 04-06-2009 22:18:22 13.2 C 43 % 0.91 C
832 04-06-2009 22:30:22 13 C 44 % 1.05 C
833 04-06-2009 22:42:22 13 C 43 % 0.73 C
834 04-06-2009 22:54:22 12.9 C 44 % 0.96 C
835 04-06-2009 23:06:22 12.7 C 45 % 1.09 C
836 04-06-2009 23:18:22 12.4 C 45 % 0.81 C
837 04-06-2009 23:30:22 12.2 C 45 % 0.63 C
838 04-06-2009 23:42:22 12.1 C 46 % 0.85 C
839 04-06-2009 23:54:22 12 C 47 % 1.05 C

Legende:
   Min
   Max


Maximal/Minimal-Werte vom 29.05.2009 - 04.06.2009

Sensor Min Max Avg
Temp
(Aussen-T/F)
9.1 °C
29-05-2009  06:11:33
29.4 °C
30-05-2009  18:12:57
17.95 °C
Feuchte
(Aussen-T/F)
20 %
29-05-2009  12:11:28
86 %
29-05-2009  06:23:33
43.98 %
Taupunkt
(Aussen-T/F)
-5.45 C
29-05-2009  11:23:28
15.11 C
01-06-2009  14:26:59
4.18 C

Die Daten stammen von einer Davis Vantage Pro 2 Wetter-Station und werden unter Linux mit der Software wview2wettercgi und aufbereitet. Alle Angaben erfolgen ohne Gewähr für ihre Vollständigkeit oder Richtigkeit.
Kontakt: Rainer Krienke krienke@uni-koblenz.de . Meine Webseiten an der Uni Koblenz oder privat.
Version: $Revision: 0.78 $